createdAt,value
2018-08-19T00:01:00.802Z,17.10
2018-08-19T00:03:31.579Z,17.10
2018-08-19T00:06:02.307Z,17.10
2018-08-19T00:08:33.490Z,17.00
2018-08-19T00:11:06.826Z,17.00
2018-08-19T00:13:38.236Z,17.00
2018-08-19T00:16:09.998Z,17.00
2018-08-19T00:18:40.710Z,16.90
2018-08-19T00:21:12.098Z,16.90
2018-08-19T00:23:48.810Z,16.90
2018-08-19T00:26:19.476Z,16.80
2018-08-19T00:28:50.154Z,16.80
2018-08-19T00:31:20.846Z,16.80
2018-08-19T00:33:51.526Z,16.70
2018-08-19T00:36:29.182Z,16.70
2018-08-19T00:38:59.872Z,16.70
2018-08-19T00:41:30.514Z,16.70
2018-08-19T00:44:01.243Z,16.60
2018-08-19T00:46:32.946Z,16.60
2018-08-19T00:49:03.652Z,16.60
2018-08-19T00:51:34.362Z,16.60
2018-08-19T00:54:05.106Z,16.50
2018-08-19T00:56:36.988Z,16.50
2018-08-19T00:59:10.106Z,16.50
2018-08-19T01:01:40.869Z,16.50
2018-08-19T01:04:11.795Z,16.40
2018-08-19T01:06:47.734Z,16.40
2018-08-19T01:09:18.726Z,16.40
2018-08-19T01:11:49.751Z,16.40
2018-08-19T01:14:20.440Z,16.40
2018-08-19T01:16:51.182Z,16.40
2018-08-19T01:19:21.863Z,16.30
2018-08-19T01:21:53.634Z,16.30
2018-08-19T01:24:24.666Z,16.30
2018-08-19T01:26:55.358Z,16.30
2018-08-19T01:29:36.882Z,16.20
2018-08-19T01:32:11.622Z,16.20
2018-08-19T01:34:45.646Z,16.20
2018-08-19T01:37:16.667Z,16.20
2018-08-19T01:39:47.687Z,16.10
2018-08-19T01:42:18.711Z,16.10
2018-08-19T01:44:49.398Z,16.10
2018-08-19T01:47:20.059Z,16.10
2018-08-19T01:49:50.707Z,16.00
2018-08-19T01:52:21.378Z,16.00
2018-08-19T01:54:52.042Z,16.10
2018-08-19T01:57:25.618Z,16.00
2018-08-19T01:59:56.351Z,16.00
2018-08-19T02:02:28.282Z,16.00
2018-08-19T02:04:59.329Z,15.90
2018-08-19T02:07:30.354Z,15.90
2018-08-19T02:10:02.778Z,15.90
2018-08-19T02:12:38.718Z,15.90
2018-08-19T02:15:10.307Z,15.80
2018-08-19T02:17:48.128Z,15.80
2018-08-19T02:20:18.882Z,15.80
2018-08-19T02:22:53.846Z,15.80
2018-08-19T02:25:24.541Z,15.80
2018-08-19T02:27:55.254Z,15.80
2018-08-19T02:30:25.926Z,15.80
2018-08-19T02:32:56.690Z,15.80
2018-08-19T02:35:27.419Z,15.80
2018-08-19T02:37:58.430Z,15.80
2018-08-19T02:40:30.670Z,15.70
2018-08-19T02:43:01.593Z,15.70
2018-08-19T02:45:38.774Z,15.70
2018-08-19T02:48:11.143Z,15.60
2018-08-19T02:50:41.836Z,15.60
2018-08-19T02:53:12.490Z,15.60
2018-08-19T02:55:43.153Z,15.60
2018-08-19T02:58:19.327Z,15.60
2018-08-19T03:00:52.055Z,15.60
2018-08-19T03:03:22.719Z,15.60
2018-08-19T03:05:56.603Z,15.50
2018-08-19T03:08:27.710Z,15.50
2018-08-19T03:10:58.417Z,15.50
2018-08-19T03:13:29.051Z,15.50
2018-08-19T03:15:59.722Z,15.50
2018-08-19T03:18:30.394Z,15.50
2018-08-19T03:21:01.086Z,15.40
2018-08-19T03:23:31.758Z,15.40
2018-08-19T03:26:02.422Z,15.40
2018-08-19T03:28:33.097Z,15.40
2018-08-19T03:31:04.098Z,15.30
2018-08-19T03:33:34.783Z,15.30
2018-08-19T03:36:05.446Z,15.30
2018-08-19T03:38:36.130Z,15.20
2018-08-19T03:41:06.975Z,15.20
2018-08-19T03:43:38.074Z,15.20
2018-08-19T03:46:14.184Z,15.10
2018-08-19T03:48:45.056Z,15.10
2018-08-19T03:51:15.690Z,15.10
2018-08-19T03:53:46.351Z,15.10
2018-08-19T03:56:22.531Z,15.10
2018-08-19T03:58:57.270Z,15.10
2018-08-19T04:01:37.395Z,15.00
2018-08-19T04:04:08.143Z,15.00
2018-08-19T04:06:39.830Z,15.00
2018-08-19T04:09:10.507Z,15.00
2018-08-19T04:11:41.198Z,14.90
2018-08-19T04:21:26.419Z,14.90
2018-08-19T04:23:57.066Z,14.90
2018-08-19T04:26:28.100Z,14.90
2018-08-19T04:28:58.778Z,14.90
2018-08-19T04:31:29.442Z,14.90
2018-08-19T04:34:00.110Z,14.90
2018-08-19T04:36:30.786Z,14.90
2018-08-19T04:39:01.445Z,15.00
2018-08-19T04:41:32.470Z,14.90
2018-08-19T04:44:03.245Z,15.00
2018-08-19T04:46:33.926Z,14.90
2018-08-19T04:49:04.645Z,14.90
2018-08-19T04:51:35.304Z,14.90
2018-08-19T04:54:06.527Z,15.00
2018-08-19T04:56:37.166Z,15.00
2018-08-19T04:59:08.459Z,14.90
2018-08-19T05:01:39.126Z,15.00
2018-08-19T05:04:10.154Z,14.90
2018-08-19T05:06:40.807Z,14.90
2018-08-19T05:09:11.474Z,15.00
2018-08-19T05:11:42.135Z,15.00
2018-08-19T05:14:12.826Z,14.90
2018-08-19T05:16:43.670Z,14.90
2018-08-19T05:19:14.570Z,14.90
2018-08-19T05:21:45.219Z,14.90
2018-08-19T05:24:15.884Z,14.90
2018-08-19T05:26:47.555Z,14.90
2018-08-19T05:29:18.186Z,14.90
2018-08-19T05:31:57.606Z,14.90
2018-08-19T05:34:33.627Z,15.00
2018-08-19T05:37:04.704Z,15.00
2018-08-19T05:39:35.423Z,15.00
2018-08-19T05:42:13.046Z,15.00
2018-08-19T05:44:44.179Z,15.10
2018-08-19T05:47:16.840Z,15.10
2018-08-19T05:49:48.422Z,15.10
2018-08-19T05:52:22.141Z,15.20
2018-08-19T05:54:57.754Z,15.20
2018-08-19T05:57:31.163Z,15.30
2018-08-19T06:00:07.200Z,15.30
2018-08-19T06:02:43.587Z,15.40
2018-08-19T06:05:14.622Z,15.40
2018-08-19T06:07:45.362Z,15.50
2018-08-19T06:10:16.026Z,15.50
2018-08-19T06:12:46.710Z,15.60
2018-08-19T06:15:17.368Z,15.70
2018-08-19T06:17:46.885Z,15.80
2018-08-19T06:20:17.565Z,15.80
2018-08-19T06:22:49.298Z,15.90
2018-08-19T06:25:19.995Z,16.00
2018-08-19T06:27:51.282Z,16.10
2018-08-19T06:30:21.982Z,16.10
2018-08-19T06:32:52.718Z,16.20
2018-08-19T06:35:23.495Z,16.30
2018-08-19T06:37:54.529Z,16.40
2018-08-19T06:40:25.195Z,16.50
2018-08-19T06:42:55.910Z,16.60
2018-08-19T06:45:26.978Z,16.60
2018-08-19T06:47:57.715Z,16.70
2018-08-19T06:50:32.283Z,16.80
2018-08-19T06:53:02.979Z,16.80
2018-08-19T06:55:33.679Z,17.00
2018-08-19T06:58:04.775Z,17.00
2018-08-19T07:00:35.686Z,17.10
2018-08-19T07:03:06.871Z,17.20
2018-08-19T07:05:37.731Z,17.40
2018-08-19T07:08:08.764Z,17.40
2018-08-19T07:10:41.693Z,17.50
2018-08-19T07:13:13.631Z,17.60
2018-08-19T07:15:44.895Z,17.70
2018-08-19T07:18:16.307Z,17.80
2018-08-19T07:20:46.974Z,17.80
2018-08-19T07:23:17.666Z,17.90
2018-08-19T07:25:48.683Z,18.00
2018-08-19T07:28:19.357Z,18.10
2018-08-19T07:30:50.046Z,18.10
2018-08-19T07:33:20.702Z,18.20
2018-08-19T07:35:51.378Z,18.40
2018-08-19T07:38:22.374Z,18.50
2018-08-19T07:40:53.130Z,18.60
2018-08-19T07:43:23.809Z,18.60
2018-08-19T07:45:54.522Z,18.70
2018-08-19T07:48:25.230Z,18.80
2018-08-19T07:50:55.886Z,18.80
2018-08-19T07:53:26.754Z,18.90
2018-08-19T07:55:57.403Z,19.00
2018-08-19T07:58:37.950Z,19.10
2018-08-19T08:01:08.958Z,19.10
2018-08-19T08:03:39.742Z,19.20
2018-08-19T08:06:10.395Z,19.30
2018-08-19T08:08:41.483Z,19.30
2018-08-19T08:11:12.503Z,19.40
2018-08-19T08:13:43.232Z,19.40
2018-08-19T08:16:14.035Z,19.50
2018-08-19T08:18:44.714Z,19.50
2018-08-19T08:21:15.427Z,19.60
2018-08-19T08:23:46.278Z,19.60
2018-08-19T08:26:16.950Z,19.70
2018-08-19T08:28:53.262Z,19.70
2018-08-19T08:31:23.942Z,19.80
2018-08-19T08:33:54.966Z,19.90
2018-08-19T08:36:26.330Z,20.00
2018-08-19T08:38:57.123Z,20.00
2018-08-19T08:41:27.814Z,20.10
2018-08-19T08:43:58.478Z,20.20
2018-08-19T08:46:29.134Z,20.20
2018-08-19T08:49:00.731Z,20.30
2018-08-19T08:51:31.374Z,20.30
2018-08-19T08:54:02.055Z,20.40
2018-08-19T08:56:32.785Z,20.40
2018-08-19T08:59:03.619Z,20.60
2018-08-19T09:01:34.299Z,20.70
2018-08-19T09:04:05.011Z,20.70
2018-08-19T09:06:35.663Z,20.80
2018-08-19T09:09:07.946Z,20.90
2018-08-19T09:11:39.186Z,20.90
2018-08-19T09:14:09.854Z,21.00
2018-08-19T09:16:40.263Z,21.10
2018-08-19T09:19:10.998Z,21.10
2018-08-19T09:21:41.889Z,21.20
2018-08-19T09:24:12.590Z,21.30
2018-08-19T09:26:42.989Z,21.40
2018-08-19T09:29:13.655Z,21.40
2018-08-19T09:31:44.354Z,21.50
2018-08-19T09:34:15.039Z,21.60
2018-08-19T09:36:45.426Z,21.60
2018-08-19T09:39:16.150Z,21.70
2018-08-19T09:41:46.542Z,21.80
2018-08-19T09:44:16.938Z,22.00
2018-08-19T09:46:47.338Z,22.10
2018-08-19T09:49:17.715Z,22.20
2018-08-19T09:51:48.123Z,22.20
2018-08-19T09:54:24.509Z,22.30
2018-08-19T09:56:54.891Z,22.40
2018-08-19T09:59:25.242Z,22.50
2018-08-19T10:01:55.654Z,22.60
2018-08-19T10:04:26.916Z,22.70
2018-08-19T10:07:28.638Z,22.70
2018-08-19T10:09:59.183Z,22.80
2018-08-19T10:12:29.578Z,22.80
2018-08-19T10:15:00.272Z,22.90
2018-08-19T10:17:31.005Z,23.00
2018-08-19T10:20:01.367Z,23.00
2018-08-19T10:22:37.127Z,23.00
2018-08-19T10:25:14.667Z,23.00
2018-08-19T10:27:47.990Z,23.10
2018-08-19T10:30:19.214Z,23.10
2018-08-19T10:33:23.862Z,23.20
2018-08-19T10:35:57.382Z,23.40
2018-08-19T10:38:27.767Z,23.50
2018-08-19T10:41:03.231Z,23.60
2018-08-19T10:43:33.599Z,23.70
2018-08-19T10:46:04.037Z,23.80
2018-08-19T10:48:34.574Z,23.80
2018-08-19T10:51:05.006Z,23.80
2018-08-19T10:53:35.378Z,23.90
2018-08-19T10:56:05.794Z,24.00
2018-08-19T10:58:36.674Z,24.10
2018-08-19T11:01:07.066Z,24.20
2018-08-19T11:03:37.461Z,24.20
2018-08-19T11:06:08.190Z,24.30
2018-08-19T11:08:42.807Z,24.40
2018-08-19T11:11:13.154Z,24.40
2018-08-19T11:13:43.541Z,24.50
2018-08-19T11:16:13.883Z,24.60
2018-08-19T11:18:46.519Z,24.70
2018-08-19T11:21:24.515Z,24.80
2018-08-19T11:23:55.439Z,24.90
2018-08-19T11:26:26.441Z,25.00
2018-08-19T11:29:00.114Z,25.10
2018-08-19T11:31:31.409Z,25.20
2018-08-19T11:34:04.437Z,25.20
2018-08-19T11:36:40.686Z,25.30
2018-08-19T11:39:14.209Z,25.40
2018-08-19T11:41:44.586Z,25.40
2018-08-19T11:44:16.502Z,25.50
2018-08-19T11:46:47.243Z,25.50
2018-08-19T11:49:18.998Z,25.50
2018-08-19T11:51:54.458Z,25.60
2018-08-19T11:54:25.498Z,25.70
2018-08-19T11:57:02.622Z,25.70
2018-08-19T11:59:36.071Z,25.90
2018-08-19T12:02:10.779Z,26.00
2018-08-19T12:04:41.701Z,26.00
2018-08-19T12:07:19.198Z,26.10
2018-08-19T12:10:00.963Z,26.20
2018-08-19T12:12:48.932Z,26.30
2018-08-19T12:15:19.310Z,26.40
2018-08-19T12:17:49.672Z,26.40
2018-08-19T12:20:28.274Z,26.40
2018-08-19T12:22:58.634Z,26.50
2018-08-19T12:25:29.295Z,26.60
2018-08-19T12:27:59.656Z,26.70
2018-08-19T12:30:31.938Z,26.80
2018-08-19T12:33:13.626Z,27.00
2018-08-19T12:35:43.990Z,27.00
2018-08-19T12:38:14.354Z,27.10
2018-08-19T12:40:47.562Z,27.20
2018-08-19T12:43:18.299Z,27.30
2018-08-19T12:45:48.734Z,27.40
2018-08-19T12:48:19.085Z,27.50
2018-08-19T12:50:54.023Z,27.60
2018-08-19T12:53:24.423Z,27.70
2018-08-19T12:55:54.831Z,27.70
2018-08-19T12:58:25.722Z,27.80
2018-08-19T13:00:56.126Z,27.90
2018-08-19T13:03:27.929Z,28.00
2018-08-19T13:06:02.446Z,28.00
2018-08-19T13:08:33.194Z,28.00
2018-08-19T13:11:05.319Z,28.10
2018-08-19T13:13:35.706Z,28.10
2018-08-19T13:16:06.414Z,28.10
2018-08-19T13:18:41.759Z,28.10
2018-08-19T13:21:17.738Z,28.20
2018-08-19T13:23:48.107Z,28.30
2018-08-19T13:26:18.458Z,28.40
2018-08-19T13:28:54.368Z,28.40
2018-08-19T13:31:30.314Z,28.40
2018-08-19T13:34:00.718Z,28.50
2018-08-19T13:36:31.319Z,28.50
2018-08-19T13:39:01.695Z,28.50
2018-08-19T13:41:32.046Z,28.50
2018-08-19T13:44:02.802Z,28.50
2018-08-19T13:46:33.551Z,28.50
2018-08-19T13:49:03.945Z,28.50
2018-08-19T13:51:34.687Z,28.60
2018-08-19T13:54:05.112Z,28.60
2018-08-19T13:56:35.700Z,28.70
2018-08-19T13:59:06.283Z,28.70
2018-08-19T14:01:36.679Z,28.80
2018-08-19T14:04:07.571Z,28.80
2018-08-19T14:06:38.365Z,28.80
2018-08-19T14:09:09.791Z,28.90
2018-08-19T14:11:40.730Z,28.90
2018-08-19T14:14:11.565Z,28.90
2018-08-19T14:16:41.950Z,28.90
2018-08-19T14:19:12.722Z,28.80
2018-08-19T14:21:43.082Z,28.70
2018-08-19T14:24:13.494Z,28.60
2018-08-19T14:26:43.902Z,28.60
2018-08-19T14:29:14.469Z,28.60
2018-08-19T14:31:44.820Z,28.50
2018-08-19T14:34:15.198Z,28.50
2018-08-19T14:36:45.567Z,28.40
2018-08-19T14:39:16.009Z,28.40
2018-08-19T14:41:46.373Z,28.40
2018-08-19T14:44:16.787Z,28.30
2018-08-19T14:46:48.163Z,28.40
2018-08-19T14:49:18.520Z,28.40
2018-08-19T14:51:56.542Z,28.40
2018-08-19T14:54:26.936Z,28.40
2018-08-19T14:56:57.687Z,28.40
2018-08-19T14:59:28.042Z,28.40
2018-08-19T15:01:58.479Z,28.40
2018-08-19T15:04:28.822Z,28.30
2018-08-19T15:06:59.217Z,28.30
2018-08-19T15:09:31.445Z,28.20
2018-08-19T15:12:13.074Z,28.20
2018-08-19T15:14:43.759Z,28.30
2018-08-19T15:17:14.128Z,28.30
2018-08-19T15:19:46.744Z,28.30
2018-08-19T15:22:17.386Z,28.30
2018-08-19T15:24:48.037Z,28.30
2018-08-19T15:27:18.958Z,28.20
2018-08-19T15:29:51.168Z,28.30
2018-08-19T15:32:22.948Z,28.20
2018-08-19T15:34:53.249Z,28.20
2018-08-19T15:37:23.636Z,28.10
2018-08-19T15:39:54.040Z,28.10
2018-08-19T15:42:24.420Z,28.10
2018-08-19T15:44:54.818Z,28.10
2018-08-19T15:47:25.189Z,28.10
2018-08-19T15:50:09.290Z,28.10
2018-08-19T15:52:39.642Z,28.00
2018-08-19T15:55:10.359Z,28.00
2018-08-19T15:57:40.734Z,27.90
2018-08-19T16:00:11.474Z,27.90
2018-08-19T16:02:41.874Z,27.90
2018-08-19T16:05:17.238Z,27.80
2018-08-19T16:07:47.810Z,27.80
2018-08-19T16:10:18.215Z,27.70
2018-08-19T16:12:49.714Z,27.70
2018-08-19T16:15:22.787Z,27.70
2018-08-19T16:17:54.559Z,27.70
2018-08-19T16:20:25.142Z,27.60
2018-08-19T16:22:55.502Z,27.60
2018-08-19T16:25:26.290Z,27.50
2018-08-19T16:27:57.002Z,27.50
2018-08-19T16:30:27.394Z,27.50
2018-08-19T16:32:58.486Z,27.50
2018-08-19T16:35:28.902Z,27.40
2018-08-19T16:37:59.279Z,27.40
2018-08-19T16:40:29.670Z,27.40
2018-08-19T16:43:00.444Z,27.40
2018-08-19T16:45:30.901Z,27.40
2018-08-19T16:48:01.314Z,27.40
2018-08-19T16:50:31.843Z,27.30
2018-08-19T16:53:02.281Z,27.30
2018-08-19T16:55:32.686Z,27.30
2018-08-19T16:58:03.046Z,27.30
2018-08-19T17:00:33.463Z,27.30
2018-08-19T17:03:18.299Z,27.20
2018-08-19T17:05:48.838Z,27.10
2018-08-19T17:08:19.538Z,27.00
2018-08-19T17:10:50.614Z,27.00
2018-08-19T17:13:21.340Z,27.00
2018-08-19T17:15:51.735Z,27.00
2018-08-19T17:18:22.282Z,26.90
2018-08-19T17:20:52.683Z,26.90
2018-08-19T17:23:24.175Z,26.80
2018-08-19T17:25:54.910Z,26.80
2018-08-19T17:28:26.152Z,26.70
2018-08-19T17:30:56.905Z,26.60
2018-08-19T17:33:29.474Z,26.60
2018-08-19T17:36:00.274Z,26.50
2018-08-19T17:38:32.892Z,26.40
2018-08-19T17:41:03.830Z,26.40
2018-08-19T17:43:39.464Z,26.30
2018-08-19T17:46:11.940Z,26.30
2018-08-19T17:48:43.279Z,26.20
2018-08-19T17:51:26.114Z,26.20
2018-08-19T17:53:56.499Z,26.00
2018-08-19T17:56:26.882Z,26.00
2018-08-19T17:58:57.293Z,25.90
2018-08-19T18:01:27.899Z,25.90
2018-08-19T18:03:58.350Z,25.80
2018-08-19T18:06:28.702Z,25.70
2018-08-19T18:08:59.135Z,25.70
2018-08-19T18:11:29.486Z,25.70
2018-08-19T18:13:59.966Z,25.60
2018-08-19T18:16:30.662Z,25.60
2018-08-19T18:19:01.084Z,25.60
2018-08-19T18:21:36.631Z,25.50
2018-08-19T18:24:07.542Z,25.40
2018-08-19T18:26:37.930Z,25.40
2018-08-19T18:29:08.310Z,25.30
2018-08-19T18:31:38.716Z,25.20
2018-08-19T18:34:09.351Z,25.20
2018-08-19T18:36:39.890Z,25.10
2018-08-19T18:39:11.382Z,25.00
2018-08-19T18:41:44.663Z,25.00
2018-08-19T18:44:15.030Z,24.80
2018-08-19T18:46:45.566Z,24.80
2018-08-19T18:49:15.927Z,24.70
2018-08-19T18:51:48.688Z,24.60
2018-08-19T18:54:30.063Z,24.60
2018-08-19T18:57:05.505Z,24.50
2018-08-19T18:59:41.285Z,24.40
2018-08-19T19:02:12.540Z,24.30
2018-08-19T19:04:44.192Z,24.20
2018-08-19T19:07:15.610Z,24.10
2018-08-19T19:09:50.365Z,24.10
2018-08-19T19:12:21.979Z,24.00
2018-08-19T19:14:52.715Z,24.00
2018-08-19T19:17:23.082Z,23.90
2018-08-19T19:19:53.497Z,23.90
2018-08-19T19:22:23.880Z,23.80
2018-08-19T19:24:54.250Z,23.80
2018-08-19T19:27:24.679Z,23.70
2018-08-19T19:30:06.467Z,23.70
2018-08-19T19:32:36.813Z,23.60
2018-08-19T19:35:12.558Z,23.50
2018-08-19T19:37:43.178Z,23.50
2018-08-19T19:40:13.563Z,23.40
2018-08-19T19:42:43.984Z,23.40
2018-08-19T19:45:14.519Z,23.30
2018-08-19T19:47:44.902Z,23.30
2018-08-19T19:50:15.290Z,23.20
2018-08-19T19:52:51.422Z,23.20
2018-08-19T19:55:21.954Z,23.10
2018-08-19T19:57:52.306Z,23.10
2018-08-19T20:00:23.050Z,23.10
2018-08-19T20:02:55.061Z,23.10
2018-08-19T20:05:26.111Z,23.10
2018-08-19T20:07:56.495Z,23.10
2018-08-19T20:10:27.858Z,23.00
2018-08-19T20:12:58.296Z,23.00
2018-08-19T20:15:28.702Z,23.00
2018-08-19T20:17:59.235Z,23.00
2018-08-19T20:20:29.968Z,22.90
2018-08-19T20:23:01.534Z,22.90
2018-08-19T20:25:31.899Z,22.90
2018-08-19T20:28:07.726Z,22.80
2018-08-19T20:30:39.058Z,22.80
2018-08-19T20:33:19.471Z,22.80
2018-08-19T20:35:49.938Z,22.80
2018-08-19T20:38:20.332Z,22.70
2018-08-19T20:40:50.699Z,22.70
2018-08-19T20:43:22.406Z,22.60
2018-08-19T20:45:53.155Z,22.60
2018-08-19T20:48:23.774Z,22.60
2018-08-19T20:50:54.175Z,22.60
2018-08-19T20:53:24.534Z,22.60
2018-08-19T20:55:54.899Z,22.50
2018-08-19T20:58:25.715Z,22.50
2018-08-19T21:00:56.148Z,22.50
2018-08-19T21:03:26.547Z,22.50
2018-08-19T21:05:56.962Z,22.50
2018-08-19T21:08:27.339Z,22.40
2018-08-19T21:10:57.698Z,22.40
2018-08-19T21:13:28.082Z,22.30
2018-08-19T21:15:58.468Z,22.30
2018-08-19T21:18:29.466Z,22.20
2018-08-19T21:21:00.283Z,22.20
2018-08-19T21:23:30.634Z,22.10
2018-08-19T21:26:01.965Z,22.10
2018-08-19T21:28:32.514Z,22.00
2018-08-19T21:31:02.894Z,22.00
2018-08-19T21:33:33.258Z,21.90
2018-08-19T21:36:03.650Z,21.90
2018-08-19T21:38:34.006Z,21.80
2018-08-19T21:41:04.378Z,21.80
2018-08-19T21:43:34.835Z,21.70
2018-08-19T21:46:05.198Z,21.70
2018-08-19T21:48:35.682Z,21.70
2018-08-19T21:51:06.062Z,21.60
2018-08-19T21:53:37.854Z,21.60
2018-08-19T21:56:08.210Z,21.60
2018-08-19T21:58:38.629Z,21.50
2018-08-19T22:01:14.405Z,21.50
2018-08-19T22:03:49.338Z,21.40
2018-08-19T22:06:19.689Z,21.40
2018-08-19T22:08:50.859Z,21.30
2018-08-19T22:11:21.214Z,21.30
2018-08-19T22:13:51.946Z,21.30
2018-08-19T22:16:22.320Z,21.20
2018-08-19T22:18:52.727Z,21.20
2018-08-19T22:21:24.183Z,21.10
2018-08-19T22:23:56.046Z,21.10
2018-08-19T22:26:26.754Z,21.00
2018-08-19T22:29:09.202Z,21.00
2018-08-19T22:31:39.561Z,20.90
2018-08-19T22:34:10.037Z,20.80
2018-08-19T22:36:40.414Z,20.80
2018-08-19T22:39:10.863Z,20.80
2018-08-19T22:41:41.215Z,20.70
2018-08-19T22:44:11.609Z,20.70
2018-08-19T22:46:42.016Z,20.70
2018-08-19T22:49:12.386Z,20.60
2018-08-19T22:51:42.772Z,20.50
2018-08-19T22:54:13.122Z,20.50
2018-08-19T22:56:43.503Z,20.40
2018-08-19T22:59:13.869Z,20.40
2018-08-19T23:01:47.335Z,20.30
2018-08-19T23:04:17.733Z,20.20
2018-08-19T23:06:48.100Z,20.20
2018-08-19T23:09:25.078Z,20.20
2018-08-19T23:11:55.484Z,20.10
2018-08-19T23:14:37.242Z,20.10
2018-08-19T23:17:08.128Z,20.00
2018-08-19T23:19:38.482Z,20.00
2018-08-19T23:22:08.866Z,20.00
2018-08-19T23:24:39.214Z,19.90
2018-08-19T23:27:09.614Z,19.90
2018-08-19T23:29:40.018Z,19.80
2018-08-19T23:32:10.388Z,19.80
2018-08-19T23:34:40.972Z,19.80
2018-08-19T23:37:11.617Z,19.80
2018-08-19T23:39:42.274Z,19.80
2018-08-19T23:42:12.938Z,19.70
2018-08-19T23:44:43.314Z,19.70
2018-08-19T23:47:14.000Z,19.70
2018-08-19T23:49:44.670Z,19.70
2018-08-19T23:52:15.063Z,19.70
2018-08-19T23:54:45.479Z,19.70
2018-08-19T23:57:16.119Z,19.70
2018-08-19T23:59:46.817Z,19.70
